sensor_id;sensor_type;location;lat;lon;timestamp;P1;durP1;ratioP1;P2;durP2;ratioP2
35612;SDS011;22054;51.646;7.078;2023-08-01T00:01:29;0.00;;;0.00;;
35612;SDS011;22054;51.646;7.078;2023-08-01T00:03:55;0.00;;;0.00;;
35612;SDS011;22054;51.646;7.078;2023-08-01T00:06:20;0.00;;;0.00;;
35612;SDS011;22054;51.646;7.078;2023-08-01T00:08:47;0.00;;;0.00;;
35612;SDS011;22054;51.646;7.078;2023-08-01T00:11:13;0.00;;;0.00;;
35612;SDS011;22054;51.646;7.078;2023-08-01T00:13:39;0.00;;;0.00;;
35612;SDS011;22054;51.646;7.078;2023-08-01T00:16:06;0.00;;;0.00;;
35612;SDS011;22054;51.646;7.078;2023-08-01T00:18:31;0.00;;;0.00;;
35612;SDS011;22054;51.646;7.078;2023-08-01T00:20:57;0.00;;;0.00;;
35612;SDS011;22054;51.646;7.078;2023-08-01T00:23:23;0.00;;;0.00;;
35612;SDS011;22054;51.646;7.078;2023-08-01T00:25:50;0.00;;;0.00;;
35612;SDS011;22054;51.646;7.078;2023-08-01T00:28:21;0.00;;;0.00;;
35612;SDS011;22054;51.646;7.078;2023-08-01T00:30:47;0.00;;;0.00;;
35612;SDS011;22054;51.646;7.078;2023-08-01T00:33:13;0.00;;;0.00;;
35612;SDS011;22054;51.646;7.078;2023-08-01T00:35:39;0.00;;;0.00;;
35612;SDS011;22054;51.646;7.078;2023-08-01T00:38:05;0.00;;;0.00;;
35612;SDS011;22054;51.646;7.078;2023-08-01T00:40:31;0.00;;;0.00;;
35612;SDS011;22054;51.646;7.078;2023-08-01T00:42:58;0.00;;;0.00;;
35612;SDS011;22054;51.646;7.078;2023-08-01T00:45:24;0.00;;;0.00;;
35612;SDS011;22054;51.646;7.078;2023-08-01T00:50:20;0.00;;;0.00;;
35612;SDS011;22054;51.646;7.078;2023-08-01T00:52:47;0.00;;;0.00;;
35612;SDS011;22054;51.646;7.078;2023-08-01T00:55:14;0.00;;;0.00;;
35612;SDS011;22054;51.646;7.078;2023-08-01T00:57:41;0.00;;;0.00;;
35612;SDS011;22054;51.646;7.078;2023-08-01T01:00:07;0.00;;;0.00;;
35612;SDS011;22054;51.646;7.078;2023-08-01T01:02:34;0.00;;;0.00;;
35612;SDS011;22054;51.646;7.078;2023-08-01T01:05:01;0.00;;;0.00;;
35612;SDS011;22054;51.646;7.078;2023-08-01T01:07:28;0.00;;;0.00;;
35612;SDS011;22054;51.646;7.078;2023-08-01T01:09:54;0.00;;;0.00;;
35612;SDS011;22054;51.646;7.078;2023-08-01T01:12:20;0.00;;;0.00;;
35612;SDS011;22054;51.646;7.078;2023-08-01T01:14:46;0.00;;;0.00;;
35612;SDS011;22054;51.646;7.078;2023-08-01T01:17:12;0.00;;;0.00;;
35612;SDS011;22054;51.646;7.078;2023-08-01T01:19:37;0.00;;;0.00;;
35612;SDS011;22054;51.646;7.078;2023-08-01T01:22:10;0.00;;;0.00;;
35612;SDS011;22054;51.646;7.078;2023-08-01T01:24:36;0.00;;;0.00;;
35612;SDS011;22054;51.646;7.078;2023-08-01T01:27:03;0.00;;;0.00;;
35612;SDS011;22054;51.646;7.078;2023-08-01T01:29:31;0.00;;;0.00;;
35612;SDS011;22054;51.646;7.078;2023-08-01T01:31:58;0.00;;;0.00;;
35612;SDS011;22054;51.646;7.078;2023-08-01T01:34:26;0.00;;;0.00;;
35612;SDS011;22054;51.646;7.078;2023-08-01T01:36:53;0.00;;;0.00;;
35612;SDS011;22054;51.646;7.078;2023-08-01T01:39:19;0.00;;;0.00;;
35612;SDS011;22054;51.646;7.078;2023-08-01T01:41:45;0.00;;;0.00;;
35612;SDS011;22054;51.646;7.078;2023-08-01T01:44:11;0.00;;;0.00;;
35612;SDS011;22054;51.646;7.078;2023-08-01T01:46:37;0.00;;;0.00;;
35612;SDS011;22054;51.646;7.078;2023-08-01T01:49:02;0.00;;;0.00;;
35612;SDS011;22054;51.646;7.078;2023-08-01T01:51:30;0.00;;;0.00;;
35612;SDS011;22054;51.646;7.078;2023-08-01T01:53:57;0.00;;;0.00;;
35612;SDS011;22054;51.646;7.078;2023-08-01T01:56:22;0.00;;;0.00;;
35612;SDS011;22054;51.646;7.078;2023-08-01T01:58:48;0.00;;;0.00;;
35612;SDS011;22054;51.646;7.078;2023-08-01T02:01:14;0.00;;;0.00;;
35612;SDS011;22054;51.646;7.078;2023-08-01T02:03:39;0.00;;;0.00;;
35612;SDS011;22054;51.646;7.078;2023-08-01T02:06:05;0.00;;;0.00;;
35612;SDS011;22054;51.646;7.078;2023-08-01T02:08:31;0.00;;;0.00;;
35612;SDS011;22054;51.646;7.078;2023-08-01T02:10:57;0.00;;;0.00;;
35612;SDS011;22054;51.646;7.078;2023-08-01T02:13:23;0.00;;;0.00;;
35612;SDS011;22054;51.646;7.078;2023-08-01T02:15:51;0.00;;;0.00;;
35612;SDS011;22054;51.646;7.078;2023-08-01T02:18:17;0.00;;;0.00;;
35612;SDS011;22054;51.646;7.078;2023-08-01T02:20:43;0.00;;;0.00;;
35612;SDS011;22054;51.646;7.078;2023-08-01T02:23:08;0.00;;;0.00;;
35612;SDS011;22054;51.646;7.078;2023-08-01T02:25:40;0.00;;;0.00;;
35612;SDS011;22054;51.646;7.078;2023-08-01T02:28:07;0.00;;;0.00;;
35612;SDS011;22054;51.646;7.078;2023-08-01T02:30:34;0.00;;;0.00;;
35612;SDS011;22054;51.646;7.078;2023-08-01T02:33:00;0.00;;;0.00;;
35612;SDS011;22054;51.646;7.078;2023-08-01T02:35:26;0.00;;;0.00;;
35612;SDS011;22054;51.646;7.078;2023-08-01T02:37:53;0.00;;;0.00;;
35612;SDS011;22054;51.646;7.078;2023-08-01T02:40:20;0.00;;;0.00;;
35612;SDS011;22054;51.646;7.078;2023-08-01T02:42:45;0.00;;;0.00;;
35612;SDS011;22054;51.646;7.078;2023-08-01T02:45:11;0.00;;;0.00;;
35612;SDS011;22054;51.646;7.078;2023-08-01T02:47:37;0.00;;;0.00;;
35612;SDS011;22054;51.646;7.078;2023-08-01T02:50:02;0.00;;;0.00;;
35612;SDS011;22054;51.646;7.078;2023-08-01T02:52:29;0.00;;;0.00;;
35612;SDS011;22054;51.646;7.078;2023-08-01T02:54:55;0.00;;;0.00;;
35612;SDS011;22054;51.646;7.078;2023-08-01T02:57:20;0.00;;;0.00;;
35612;SDS011;22054;51.646;7.078;2023-08-01T02:59:46;0.00;;;0.00;;
35612;SDS011;22054;51.646;7.078;2023-08-01T03:02:12;0.00;;;0.00;;
35612;SDS011;22054;51.646;7.078;2023-08-01T03:04:37;0.00;;;0.00;;
35612;SDS011;22054;51.646;7.078;2023-08-01T03:07:03;0.00;;;0.00;;
35612;SDS011;22054;51.646;7.078;2023-08-01T03:09:29;0.00;;;0.00;;
35612;SDS011;22054;51.646;7.078;2023-08-01T03:11:55;0.00;;;0.00;;
35612;SDS011;22054;51.646;7.078;2023-08-01T03:14:20;0.00;;;0.00;;
35612;SDS011;22054;51.646;7.078;2023-08-01T03:16:46;0.00;;;0.00;;
35612;SDS011;22054;51.646;7.078;2023-08-01T03:19:12;0.00;;;0.00;;
35612;SDS011;22054;51.646;7.078;2023-08-01T03:21:38;0.00;;;0.00;;
35612;SDS011;22054;51.646;7.078;2023-08-01T03:24:05;0.00;;;0.00;;
35612;SDS011;22054;51.646;7.078;2023-08-01T03:26:34;0.00;;;0.00;;
35612;SDS011;22054;51.646;7.078;2023-08-01T03:29:03;0.00;;;0.00;;
35612;SDS011;22054;51.646;7.078;2023-08-01T03:31:30;0.00;;;0.00;;
35612;SDS011;22054;51.646;7.078;2023-08-01T03:33:56;0.00;;;0.00;;
35612;SDS011;22054;51.646;7.078;2023-08-01T03:36:23;0.00;;;0.00;;
35612;SDS011;22054;51.646;7.078;2023-08-01T03:38:49;0.00;;;0.00;;
35612;SDS011;22054;51.646;7.078;2023-08-01T03:41:15;0.00;;;0.00;;
35612;SDS011;22054;51.646;7.078;2023-08-01T03:43:41;0.00;;;0.00;;
35612;SDS011;22054;51.646;7.078;2023-08-01T03:46:07;0.00;;;0.00;;
35612;SDS011;22054;51.646;7.078;2023-08-01T03:48:33;0.00;;;0.00;;
35612;SDS011;22054;51.646;7.078;2023-08-01T03:50:58;0.00;;;0.00;;
35612;SDS011;22054;51.646;7.078;2023-08-01T03:53:25;0.00;;;0.00;;
35612;SDS011;22054;51.646;7.078;2023-08-01T03:55:51;0.00;;;0.00;;
35612;SDS011;22054;51.646;7.078;2023-08-01T03:58:16;0.00;;;0.00;;
35612;SDS011;22054;51.646;7.078;2023-08-01T04:00:42;0.00;;;0.00;;
35612;SDS011;22054;51.646;7.078;2023-08-01T04:03:08;0.00;;;0.00;;
35612;SDS011;22054;51.646;7.078;2023-08-01T04:05:34;0.00;;;0.00;;
35612;SDS011;22054;51.646;7.078;2023-08-01T04:07:59;0.00;;;0.00;;
35612;SDS011;22054;51.646;7.078;2023-08-01T04:10:25;0.00;;;0.00;;
35612;SDS011;22054;51.646;7.078;2023-08-01T04:12:51;0.00;;;0.00;;
35612;SDS011;22054;51.646;7.078;2023-08-01T04:15:17;0.00;;;0.00;;
35612;SDS011;22054;51.646;7.078;2023-08-01T04:17:42;0.00;;;0.00;;
35612;SDS011;22054;51.646;7.078;2023-08-01T04:20:08;0.00;;;0.00;;
35612;SDS011;22054;51.646;7.078;2023-08-01T04:22:34;0.00;;;0.00;;
35612;SDS011;22054;51.646;7.078;2023-08-01T04:25:01;0.00;;;0.00;;
35612;SDS011;22054;51.646;7.078;2023-08-01T04:27:27;0.00;;;0.00;;
35612;SDS011;22054;51.646;7.078;2023-08-01T04:29:53;0.00;;;0.00;;
35612;SDS011;22054;51.646;7.078;2023-08-01T04:32:20;0.00;;;0.00;;
35612;SDS011;22054;51.646;7.078;2023-08-01T04:34:46;0.00;;;0.00;;
35612;SDS011;22054;51.646;7.078;2023-08-01T04:37:11;0.00;;;0.00;;
35612;SDS011;22054;51.646;7.078;2023-08-01T04:39:37;0.00;;;0.00;;
35612;SDS011;22054;51.646;7.078;2023-08-01T04:42:03;0.00;;;0.00;;
35612;SDS011;22054;51.646;7.078;2023-08-01T04:44:29;0.00;;;0.00;;
35612;SDS011;22054;51.646;7.078;2023-08-01T04:46:55;0.00;;;0.00;;
35612;SDS011;22054;51.646;7.078;2023-08-01T04:49:21;0.00;;;0.00;;
35612;SDS011;22054;51.646;7.078;2023-08-01T04:51:48;0.00;;;0.00;;
35612;SDS011;22054;51.646;7.078;2023-08-01T04:54:15;0.00;;;0.00;;
35612;SDS011;22054;51.646;7.078;2023-08-01T04:56:41;0.00;;;0.00;;
35612;SDS011;22054;51.646;7.078;2023-08-01T04:59:06;0.00;;;0.00;;
35612;SDS011;22054;51.646;7.078;2023-08-01T05:01:32;0.00;;;0.00;;
35612;SDS011;22054;51.646;7.078;2023-08-01T05:03:58;0.00;;;0.00;;
35612;SDS011;22054;51.646;7.078;2023-08-01T05:06:24;0.00;;;0.00;;
35612;SDS011;22054;51.646;7.078;2023-08-01T05:08:50;0.00;;;0.00;;
35612;SDS011;22054;51.646;7.078;2023-08-01T05:11:16;0.00;;;0.00;;
35612;SDS011;22054;51.646;7.078;2023-08-01T05:13:41;0.00;;;0.00;;
35612;SDS011;22054;51.646;7.078;2023-08-01T05:16:07;0.00;;;0.00;;
35612;SDS011;22054;51.646;7.078;2023-08-01T05:18:33;0.00;;;0.00;;
35612;SDS011;22054;51.646;7.078;2023-08-01T05:20:59;0.00;;;0.00;;
35612;SDS011;22054;51.646;7.078;2023-08-01T05:23:24;0.00;;;0.00;;
35612;SDS011;22054;51.646;7.078;2023-08-01T05:25:50;0.00;;;0.00;;
35612;SDS011;22054;51.646;7.078;2023-08-01T05:28:16;0.00;;;0.00;;
35612;SDS011;22054;51.646;7.078;2023-08-01T05:30:41;0.00;;;0.00;;
35612;SDS011;22054;51.646;7.078;2023-08-01T05:33:07;0.00;;;0.00;;
35612;SDS011;22054;51.646;7.078;2023-08-01T05:35:33;0.00;;;0.00;;
35612;SDS011;22054;51.646;7.078;2023-08-01T05:37:59;0.00;;;0.00;;
35612;SDS011;22054;51.646;7.078;2023-08-01T05:40:25;0.00;;;0.00;;
35612;SDS011;22054;51.646;7.078;2023-08-01T05:42:50;0.00;;;0.00;;
35612;SDS011;22054;51.646;7.078;2023-08-01T05:45:16;0.00;;;0.00;;
35612;SDS011;22054;51.646;7.078;2023-08-01T05:47:42;0.00;;;0.00;;
35612;SDS011;22054;51.646;7.078;2023-08-01T05:50:08;0.00;;;0.00;;
35612;SDS011;22054;51.646;7.078;2023-08-01T05:52:34;0.00;;;0.00;;
35612;SDS011;22054;51.646;7.078;2023-08-01T05:55:00;0.00;;;0.00;;
35612;SDS011;22054;51.646;7.078;2023-08-01T05:57:25;0.00;;;0.00;;
35612;SDS011;22054;51.646;7.078;2023-08-01T05:59:51;0.00;;;0.00;;
35612;SDS011;22054;51.646;7.078;2023-08-01T06:02:18;0.00;;;0.00;;
35612;SDS011;22054;51.646;7.078;2023-08-01T06:04:44;0.00;;;0.00;;
35612;SDS011;22054;51.646;7.078;2023-08-01T06:07:09;0.00;;;0.00;;
35612;SDS011;22054;51.646;7.078;2023-08-01T06:09:35;0.00;;;0.00;;
35612;SDS011;22054;51.646;7.078;2023-08-01T06:12:01;0.00;;;0.00;;
35612;SDS011;22054;51.646;7.078;2023-08-01T06:14:26;0.00;;;0.00;;
35612;SDS011;22054;51.646;7.078;2023-08-01T06:16:52;0.00;;;0.00;;
35612;SDS011;22054;51.646;7.078;2023-08-01T06:19:18;0.00;;;0.00;;
35612;SDS011;22054;51.646;7.078;2023-08-01T06:21:43;0.00;;;0.00;;
35612;SDS011;22054;51.646;7.078;2023-08-01T06:24:09;0.00;;;0.00;;
35612;SDS011;22054;51.646;7.078;2023-08-01T06:26:35;0.00;;;0.00;;
35612;SDS011;22054;51.646;7.078;2023-08-01T06:29:01;0.00;;;0.00;;
35612;SDS011;22054;51.646;7.078;2023-08-01T06:31:27;0.00;;;0.00;;
35612;SDS011;22054;51.646;7.078;2023-08-01T06:33:52;0.00;;;0.00;;
35612;SDS011;22054;51.646;7.078;2023-08-01T06:36:18;0.00;;;0.00;;
35612;SDS011;22054;51.646;7.078;2023-08-01T06:38:44;0.00;;;0.00;;
35612;SDS011;22054;51.646;7.078;2023-08-01T06:41:09;0.00;;;0.00;;
35612;SDS011;22054;51.646;7.078;2023-08-01T06:43:35;0.00;;;0.00;;
35612;SDS011;22054;51.646;7.078;2023-08-01T06:46:03;0.00;;;0.00;;
35612;SDS011;22054;51.646;7.078;2023-08-01T06:48:30;0.00;;;0.00;;
35612;SDS011;22054;51.646;7.078;2023-08-01T06:51:00;0.00;;;0.00;;
35612;SDS011;22054;51.646;7.078;2023-08-01T06:53:27;0.00;;;0.00;;
35612;SDS011;22054;51.646;7.078;2023-08-01T06:55:52;0.00;;;0.00;;
35612;SDS011;22054;51.646;7.078;2023-08-01T06:58:18;0.00;;;0.00;;
35612;SDS011;22054;51.646;7.078;2023-08-01T07:00:44;0.00;;;0.00;;
35612;SDS011;22054;51.646;7.078;2023-08-01T07:03:10;0.00;;;0.00;;
35612;SDS011;22054;51.646;7.078;2023-08-01T07:05:35;0.00;;;0.00;;
35612;SDS011;22054;51.646;7.078;2023-08-01T07:08:02;0.00;;;0.00;;
35612;SDS011;22054;51.646;7.078;2023-08-01T07:10:28;0.00;;;0.00;;
35612;SDS011;22054;51.646;7.078;2023-08-01T07:12:53;0.00;;;0.00;;
35612;SDS011;22054;51.646;7.078;2023-08-01T07:15:19;0.00;;;0.00;;
35612;SDS011;22054;51.646;7.078;2023-08-01T07:17:45;0.00;;;0.00;;
35612;SDS011;22054;51.646;7.078;2023-08-01T07:20:10;0.00;;;0.00;;
35612;SDS011;22054;51.646;7.078;2023-08-01T07:22:36;0.00;;;0.00;;
35612;SDS011;22054;51.646;7.078;2023-08-01T07:25:02;0.00;;;0.00;;
35612;SDS011;22054;51.646;7.078;2023-08-01T07:27:28;0.00;;;0.00;;
35612;SDS011;22054;51.646;7.078;2023-08-01T07:29:54;0.00;;;0.00;;
35612;SDS011;22054;51.646;7.078;2023-08-01T07:32:19;0.00;;;0.00;;
35612;SDS011;22054;51.646;7.078;2023-08-01T07:34:45;0.00;;;0.00;;
35612;SDS011;22054;51.646;7.078;2023-08-01T07:37:11;0.00;;;0.00;;
35612;SDS011;22054;51.646;7.078;2023-08-01T07:39:36;0.00;;;0.00;;
35612;SDS011;22054;51.646;7.078;2023-08-01T07:42:02;0.00;;;0.00;;
35612;SDS011;22054;51.646;7.078;2023-08-01T07:44:28;0.00;;;0.00;;
35612;SDS011;22054;51.646;7.078;2023-08-01T07:46:56;0.00;;;0.00;;
35612;SDS011;22054;51.646;7.078;2023-08-01T07:49:22;0.00;;;0.00;;
35612;SDS011;22054;51.646;7.078;2023-08-01T07:51:48;0.00;;;0.00;;
35612;SDS011;22054;51.646;7.078;2023-08-01T07:54:13;0.00;;;0.00;;
35612;SDS011;22054;51.646;7.078;2023-08-01T07:56:39;0.00;;;0.00;;
35612;SDS011;22054;51.646;7.078;2023-08-01T07:59:05;0.00;;;0.00;;
35612;SDS011;22054;51.646;7.078;2023-08-01T08:01:30;0.00;;;0.00;;
35612;SDS011;22054;51.646;7.078;2023-08-01T08:03:56;0.00;;;0.00;;
35612;SDS011;22054;51.646;7.078;2023-08-01T08:06:22;0.00;;;0.00;;
35612;SDS011;22054;51.646;7.078;2023-08-01T08:08:48;0.00;;;0.00;;
35612;SDS011;22054;51.646;7.078;2023-08-01T08:11:14;0.00;;;0.00;;
35612;SDS011;22054;51.646;7.078;2023-08-01T08:13:41;0.00;;;0.00;;
35612;SDS011;22054;51.646;7.078;2023-08-01T08:16:07;0.00;;;0.00;;
35612;SDS011;22054;51.646;7.078;2023-08-01T08:18:33;0.00;;;0.00;;
35612;SDS011;22054;51.646;7.078;2023-08-01T08:20:58;0.00;;;0.00;;
35612;SDS011;22054;51.646;7.078;2023-08-01T08:23:24;0.00;;;0.00;;
35612;SDS011;22054;51.646;7.078;2023-08-01T08:25:50;0.00;;;0.00;;
35612;SDS011;22054;51.646;7.078;2023-08-01T08:28:16;0.00;;;0.00;;
35612;SDS011;22054;51.646;7.078;2023-08-01T08:30:55;0.00;;;0.00;;
35612;SDS011;22054;51.646;7.078;2023-08-01T08:33:20;0.00;;;0.00;;
35612;SDS011;22054;51.646;7.078;2023-08-01T08:35:46;0.00;;;0.00;;
35612;SDS011;22054;51.646;7.078;2023-08-01T08:38:12;0.00;;;0.00;;
35612;SDS011;22054;51.646;7.078;2023-08-01T08:40:40;0.00;;;0.00;;
35612;SDS011;22054;51.646;7.078;2023-08-01T08:43:11;0.00;;;0.00;;
35612;SDS011;22054;51.646;7.078;2023-08-01T08:45:37;0.00;;;0.00;;
35612;SDS011;22054;51.646;7.078;2023-08-01T08:48:12;0.00;;;0.00;;
35612;SDS011;22054;51.646;7.078;2023-08-01T08:50:43;0.00;;;0.00;;
35612;SDS011;22054;51.646;7.078;2023-08-01T08:53:10;0.00;;;0.00;;
35612;SDS011;22054;51.646;7.078;2023-08-01T08:55:38;0.00;;;0.00;;
35612;SDS011;22054;51.646;7.078;2023-08-01T08:58:05;0.00;;;0.00;;
35612;SDS011;22054;51.646;7.078;2023-08-01T09:00:31;0.00;;;0.00;;
35612;SDS011;22054;51.646;7.078;2023-08-01T09:02:57;0.00;;;0.00;;
35612;SDS011;22054;51.646;7.078;2023-08-01T09:05:24;0.00;;;0.00;;
35612;SDS011;22054;51.646;7.078;2023-08-01T09:07:55;0.00;;;0.00;;
35612;SDS011;22054;51.646;7.078;2023-08-01T09:12:48;0.00;;;0.00;;
35612;SDS011;22054;51.646;7.078;2023-08-01T09:15:15;0.00;;;0.00;;
35612;SDS011;22054;51.646;7.078;2023-08-01T09:18:05;0.00;;;0.00;;
35612;SDS011;22054;51.646;7.078;2023-08-01T09:20:39;0.00;;;0.00;;
35612;SDS011;22054;51.646;7.078;2023-08-01T09:23:15;0.00;;;0.00;;
35612;SDS011;22054;51.646;7.078;2023-08-01T09:25:42;0.00;;;0.00;;
35612;SDS011;22054;51.646;7.078;2023-08-01T09:28:17;0.00;;;0.00;;
35612;SDS011;22054;51.646;7.078;2023-08-01T09:30:48;0.00;;;0.00;;
35612;SDS011;22054;51.646;7.078;2023-08-01T09:33:17;0.00;;;0.00;;
35612;SDS011;22054;51.646;7.078;2023-08-01T09:35:43;0.00;;;0.00;;
35612;SDS011;22054;51.646;7.078;2023-08-01T09:38:11;0.00;;;0.00;;
35612;SDS011;22054;51.646;7.078;2023-08-01T09:40:41;0.00;;;0.00;;
35612;SDS011;22054;51.646;7.078;2023-08-01T09:43:09;0.00;;;0.00;;
35612;SDS011;22054;51.646;7.078;2023-08-01T09:45:36;0.00;;;0.00;;
35612;SDS011;22054;51.646;7.078;2023-08-01T09:48:02;0.00;;;0.00;;
35612;SDS011;22054;51.646;7.078;2023-08-01T09:50:28;0.00;;;0.00;;
35612;SDS011;22054;51.646;7.078;2023-08-01T09:52:54;0.00;;;0.00;;
35612;SDS011;22054;51.646;7.078;2023-08-01T09:55:26;0.00;;;0.00;;
35612;SDS011;22054;51.646;7.078;2023-08-01T09:57:58;0.00;;;0.00;;
35612;SDS011;22054;51.646;7.078;2023-08-01T10:00:25;0.00;;;0.00;;
35612;SDS011;22054;51.646;7.078;2023-08-01T10:02:52;0.00;;;0.00;;
35612;SDS011;22054;51.646;7.078;2023-08-01T10:05:20;0.00;;;0.00;;
35612;SDS011;22054;51.646;7.078;2023-08-01T10:07:47;0.00;;;0.00;;
35612;SDS011;22054;51.646;7.078;2023-08-01T10:10:14;0.00;;;0.00;;
35612;SDS011;22054;51.646;7.078;2023-08-01T10:12:43;0.00;;;0.00;;
35612;SDS011;22054;51.646;7.078;2023-08-01T10:15:13;0.00;;;0.00;;
35612;SDS011;22054;51.646;7.078;2023-08-01T10:17:41;0.00;;;0.00;;
35612;SDS011;22054;51.646;7.078;2023-08-01T10:20:07;0.00;;;0.00;;
35612;SDS011;22054;51.646;7.078;2023-08-01T10:22:33;0.00;;;0.00;;
35612;SDS011;22054;51.646;7.078;2023-08-01T10:24:59;0.00;;;0.00;;
35612;SDS011;22054;51.646;7.078;2023-08-01T10:27:26;0.00;;;0.00;;
35612;SDS011;22054;51.646;7.078;2023-08-01T10:29:58;0.10;;;0.10;;
35612;SDS011;22054;51.646;7.078;2023-08-01T10:32:32;0.10;;;0.10;;
35612;SDS011;22054;51.646;7.078;2023-08-01T10:35:00;0.00;;;0.00;;
35612;SDS011;22054;51.646;7.078;2023-08-01T10:37:26;0.00;;;0.00;;
35612;SDS011;22054;51.646;7.078;2023-08-01T10:39:56;0.00;;;0.00;;
35612;SDS011;22054;51.646;7.078;2023-08-01T10:42:25;0.00;;;0.00;;
35612;SDS011;22054;51.646;7.078;2023-08-01T10:45:02;0.00;;;0.00;;
35612;SDS011;22054;51.646;7.078;2023-08-01T10:47:29;0.00;;;0.00;;
35612;SDS011;22054;51.646;7.078;2023-08-01T10:49:56;0.00;;;0.00;;
35612;SDS011;22054;51.646;7.078;2023-08-01T10:52:26;0.00;;;0.00;;
35612;SDS011;22054;51.646;7.078;2023-08-01T10:54:56;0.00;;;0.00;;
35612;SDS011;22054;51.646;7.078;2023-08-01T10:57:24;0.00;;;0.00;;
35612;SDS011;22054;51.646;7.078;2023-08-01T10:59:52;0.00;;;0.00;;
35612;SDS011;22054;51.646;7.078;2023-08-01T11:02:23;0.00;;;0.00;;
35612;SDS011;22054;51.646;7.078;2023-08-01T11:04:59;0.00;;;0.00;;
35612;SDS011;22054;51.646;7.078;2023-08-01T11:07:30;0.00;;;0.00;;
35612;SDS011;22054;51.646;7.078;2023-08-01T11:10:06;0.00;;;0.00;;
35612;SDS011;22054;51.646;7.078;2023-08-01T11:12:37;0.00;;;0.00;;
35612;SDS011;22054;51.646;7.078;2023-08-01T11:15:09;0.00;;;0.00;;
35612;SDS011;22054;51.646;7.078;2023-08-01T11:17:41;0.00;;;0.00;;
35612;SDS011;22054;51.646;7.078;2023-08-01T11:20:11;0.00;;;0.00;;
35612;SDS011;22054;51.646;7.078;2023-08-01T11:22:37;0.00;;;0.00;;
35612;SDS011;22054;51.646;7.078;2023-08-01T11:25:14;0.00;;;0.00;;
35612;SDS011;22054;51.646;7.078;2023-08-01T11:27:40;0.00;;;0.00;;
35612;SDS011;22054;51.646;7.078;2023-08-01T11:30:06;0.00;;;0.00;;
35612;SDS011;22054;51.646;7.078;2023-08-01T11:32:36;0.00;;;0.00;;
35612;SDS011;22054;51.646;7.078;2023-08-01T11:35:03;0.00;;;0.00;;
35612;SDS011;22054;51.646;7.078;2023-08-01T11:37:30;0.00;;;0.00;;
35612;SDS011;22054;51.646;7.078;2023-08-01T11:39:56;0.20;;;0.20;;
35612;SDS011;22054;51.646;7.078;2023-08-01T11:42:22;15.65;;;15.05;;
35612;SDS011;22054;51.646;7.078;2023-08-01T11:44:48;14.73;;;14.13;;
35612;SDS011;22054;51.646;7.078;2023-08-01T11:47:16;14.60;;;14.00;;
35612;SDS011;22054;51.646;7.078;2023-08-01T11:49:45;13.05;;;12.55;;
35612;SDS011;22054;51.646;7.078;2023-08-01T11:52:25;12.98;;;12.48;;
35612;SDS011;22054;51.646;7.078;2023-08-01T11:54:52;11.30;;;10.90;;
35612;SDS011;22054;51.646;7.078;2023-08-01T11:57:19;11.48;;;11.02;;
35612;SDS011;22054;51.646;7.078;2023-08-01T12:02:26;9.18;;;8.80;;
35612;SDS011;22054;51.646;7.078;2023-08-01T12:04:55;10.02;;;9.63;;
35612;SDS011;22054;51.646;7.078;2023-08-01T12:07:24;9.13;;;8.73;;
35612;SDS011;22054;51.646;7.078;2023-08-01T12:09:57;8.25;;;7.95;;
35612;SDS011;22054;51.646;7.078;2023-08-01T12:12:26;8.23;;;7.93;;
35612;SDS011;22054;51.646;7.078;2023-08-01T12:14:53;8.68;;;8.38;;
35612;SDS011;22054;51.646;7.078;2023-08-01T12:17:19;8.30;;;8.00;;
35612;SDS011;22054;51.646;7.078;2023-08-01T12:19:45;8.85;;;8.55;;
35612;SDS011;22054;51.646;7.078;2023-08-01T12:22:11;8.82;;;8.52;;
35612;SDS011;22054;51.646;7.078;2023-08-01T12:24:37;9.10;;;8.70;;
35612;SDS011;22054;51.646;7.078;2023-08-01T12:27:05;8.80;;;8.50;;
35612;SDS011;22054;51.646;7.078;2023-08-01T12:29:32;9.05;;;8.68;;
35612;SDS011;22054;51.646;7.078;2023-08-01T12:31:57;8.45;;;8.15;;
35612;SDS011;22054;51.646;7.078;2023-08-01T12:34:23;8.10;;;7.80;;
35612;SDS011;22054;51.646;7.078;2023-08-01T12:36:49;7.60;;;7.30;;
35612;SDS011;22054;51.646;7.078;2023-08-01T12:39:14;7.88;;;7.57;;
35612;SDS011;22054;51.646;7.078;2023-08-01T12:41:40;8.10;;;7.80;;
35612;SDS011;22054;51.646;7.078;2023-08-01T12:44:06;7.65;;;7.35;;
35612;SDS011;22054;51.646;7.078;2023-08-01T12:46:32;8.45;;;8.15;;
35612;SDS011;22054;51.646;7.078;2023-08-01T12:48:57;7.95;;;7.65;;
35612;SDS011;22054;51.646;7.078;2023-08-01T12:51:23;8.02;;;7.72;;
35612;SDS011;22054;51.646;7.078;2023-08-01T12:53:49;8.13;;;7.82;;
35612;SDS011;22054;51.646;7.078;2023-08-01T12:56:15;8.00;;;7.70;;
35612;SDS011;22054;51.646;7.078;2023-08-01T12:58:41;7.50;;;7.20;;
35612;SDS011;22054;51.646;7.078;2023-08-01T13:01:06;7.70;;;7.40;;
35612;SDS011;22054;51.646;7.078;2023-08-01T13:03:32;8.10;;;7.80;;
35612;SDS011;22054;51.646;7.078;2023-08-01T13:05:58;7.68;;;7.38;;
35612;SDS011;22054;51.646;7.078;2023-08-01T13:08:24;7.78;;;7.47;;
35612;SDS011;22054;51.646;7.078;2023-08-01T13:10:49;7.50;;;7.20;;
35612;SDS011;22054;51.646;7.078;2023-08-01T13:13:16;7.57;;;7.28;;
35612;SDS011;22054;51.646;7.078;2023-08-01T13:15:42;7.80;;;7.50;;
35612;SDS011;22054;51.646;7.078;2023-08-01T13:18:08;7.75;;;7.45;;
35612;SDS011;22054;51.646;7.078;2023-08-01T13:20:35;8.10;;;7.80;;
35612;SDS011;22054;51.646;7.078;2023-08-01T13:23:01;7.80;;;7.50;;
35612;SDS011;22054;51.646;7.078;2023-08-01T13:25:28;7.78;;;7.47;;
35612;SDS011;22054;51.646;7.078;2023-08-01T13:27:54;7.38;;;7.07;;
35612;SDS011;22054;51.646;7.078;2023-08-01T13:30:20;8.07;;;7.78;;
35612;SDS011;22054;51.646;7.078;2023-08-01T13:32:46;8.30;;;8.00;;
35612;SDS011;22054;51.646;7.078;2023-08-01T13:35:12;7.90;;;7.60;;
35612;SDS011;22054;51.646;7.078;2023-08-01T13:37:38;8.25;;;7.95;;
35612;SDS011;22054;51.646;7.078;2023-08-01T13:40:04;7.80;;;7.50;;
35612;SDS011;22054;51.646;7.078;2023-08-01T13:42:31;8.00;;;7.70;;
35612;SDS011;22054;51.646;7.078;2023-08-01T13:44:57;7.72;;;7.43;;
35612;SDS011;22054;51.646;7.078;2023-08-01T13:47:22;8.10;;;7.80;;
35612;SDS011;22054;51.646;7.078;2023-08-01T13:49:48;7.60;;;7.30;;
35612;SDS011;22054;51.646;7.078;2023-08-01T13:52:14;7.72;;;7.43;;
35612;SDS011;22054;51.646;7.078;2023-08-01T13:54:39;8.00;;;7.70;;
35612;SDS011;22054;51.646;7.078;2023-08-01T13:57:05;7.85;;;7.55;;
35612;SDS011;22054;51.646;7.078;2023-08-01T13:59:31;9.10;;;8.70;;
35612;SDS011;22054;51.646;7.078;2023-08-01T14:01:57;13.18;;;12.68;;
35612;SDS011;22054;51.646;7.078;2023-08-01T14:04:23;15.95;;;15.32;;
35612;SDS011;22054;51.646;7.078;2023-08-01T14:06:49;0.00;;;0.00;;
35612;SDS011;22054;51.646;7.078;2023-08-01T14:09:14;0.00;;;0.00;;
35612;SDS011;22054;51.646;7.078;2023-08-01T14:11:40;0.00;;;0.00;;
35612;SDS011;22054;51.646;7.078;2023-08-01T14:14:06;0.00;;;0.00;;
35612;SDS011;22054;51.646;7.078;2023-08-01T14:16:31;1.52;;;1.45;;
35612;SDS011;22054;51.646;7.078;2023-08-01T14:18:58;7.72;;;7.43;;
35612;SDS011;22054;51.646;7.078;2023-08-01T14:21:24;7.00;;;6.70;;
35612;SDS011;22054;51.646;7.078;2023-08-01T14:23:49;6.90;;;6.60;;
35612;SDS011;22054;51.646;7.078;2023-08-01T14:26:15;7.00;;;6.70;;
35612;SDS011;22054;51.646;7.078;2023-08-01T14:28:41;7.30;;;7.00;;
35612;SDS011;22054;51.646;7.078;2023-08-01T14:31:07;7.40;;;7.10;;
35612;SDS011;22054;51.646;7.078;2023-08-01T14:33:32;6.90;;;6.60;;
35612;SDS011;22054;51.646;7.078;2023-08-01T14:35:59;7.28;;;6.97;;
35612;SDS011;22054;51.646;7.078;2023-08-01T14:38:24;7.60;;;7.30;;
35612;SDS011;22054;51.646;7.078;2023-08-01T14:40:52;7.80;;;7.50;;
35612;SDS011;22054;51.646;7.078;2023-08-01T14:43:18;7.50;;;7.20;;
35612;SDS011;22054;51.646;7.078;2023-08-01T14:45:44;7.65;;;7.35;;
35612;SDS011;22054;51.646;7.078;2023-08-01T14:48:10;7.55;;;7.25;;
35612;SDS011;22054;51.646;7.078;2023-08-01T14:50:37;8.00;;;7.70;;
35612;SDS011;22054;51.646;7.078;2023-08-01T14:53:03;7.88;;;7.57;;